Time;durP1;ratioP1;P1;durP2;ratioP2;P2;SDS_P1;SDS_P2;PMS_P1;PMS_P2;Temp;Humidity;BMP_temperature;BMP_pressure;BME280_temperature;BME280_humidity;BME280_pressure;Samples;Min_cycle;Max_cycle;Signal;HPM_P1;HPM_P2
2022/04/06 00:02:05;;;;;;;0.70;0.60;;;;;;;;;;5073033;28;20431;-74
2022/04/06 00:04:32;;;;;;;0.70;0.60;;;;;;;;;;5062869;28;20439;-77
2022/04/06 00:07:00;;;;;;;0.70;0.63;;;;;;;;;;5066036;28;20874;-76
2022/04/06 00:09:26;;;;;;;0.70;0.60;;;;;;;;;;5073162;28;20439;-74
2022/04/06 00:11:54;;;;;;;0.70;0.60;;;;;;;;;;5061055;28;20505;-74
2022/04/06 00:14:22;;;;;;;0.70;0.60;;;;;;;;;;5065352;28;21034;-78
2022/04/06 00:16:49;;;;;;;0.70;0.60;;;;;;;;;;5063056;28;20466;-77
2022/04/06 00:19:17;;;;;;;1.07;1.00;;;;;;;;;;5054194;28;20435;-77
2022/04/06 00:21:45;;;;;;;0.70;0.60;;;;;;;;;;5054962;28;21034;-75
2022/04/06 00:24:12;;;;;;;1.10;1.00;;;;;;;;;;5055359;28;20432;-76
2022/04/06 00:26:39;;;;;;;0.70;0.63;;;;;;;;;;5055043;28;20924;-77
2022/04/06 00:29:06;;;;;;;0.70;0.60;;;;;;;;;;5054462;28;20820;-77
2022/04/06 00:31:33;;;;;;;0.70;0.60;;;;;;;;;;5055788;28;20431;-76
2022/04/06 00:33:59;;;;;;;0.70;0.60;;;;;;;;;;5054595;28;20952;-75
2022/04/06 00:36:28;;;;;;;0.70;0.60;;;;;;;;;;5068607;28;20479;-74
2022/04/06 00:38:55;;;;;;;0.70;0.70;;;;;;;;;;5054200;28;20444;-75
2022/04/06 00:41:24;;;;;;;0.67;0.50;;;;;;;;;;5091636;28;20786;-76
2022/04/06 00:44:13;;;;;;;0.70;0.60;;;;;;;;;;5077192;28;20432;-77
2022/04/06 00:46:45;;;;;;;0.70;0.70;;;;;;;;;;5059391;28;21246;-75
2022/04/06 00:49:14;;;;;;;0.70;0.70;;;;;;;;;;5056431;28;20447;-77
2022/04/06 00:51:46;;;;;;;0.70;0.70;;;;;;;;;;5055296;28;20467;-76
2022/04/06 00:54:22;;;;;;;0.70;0.60;;;;;;;;;;5070665;28;20954;-77
2022/04/06 00:56:54;;;;;;;0.70;0.60;;;;;;;;;;5054247;28;20458;-76
2022/04/06 00:59:26;;;;;;;0.70;0.60;;;;;;;;;;5054571;28;20408;-74
2022/04/06 01:01:57;;;;;;;0.70;0.70;;;;;;;;;;5054422;28;20451;-75
2022/04/06 01:04:32;;;;;;;0.70;0.60;;;;;;;;;;5040837;28;20462;-76
2022/04/06 01:07:02;;;;;;;0.70;0.60;;;;;;;;;;5061557;28;20479;-76
2022/04/06 01:09:32;;;;;;;0.70;0.60;;;;;;;;;;5051465;28;20541;-77
2022/04/06 01:12:02;;;;;;;0.70;0.60;;;;;;;;;;5053483;28;20546;-75
2022/04/06 01:14:30;;;;;;;0.70;0.60;;;;;;;;;;5057851;28;20453;-76
2022/04/06 01:17:07;;;;;;;0.70;0.70;;;;;;;;;;5039507;28;20500;-76
2022/04/06 01:19:43;;;;;;;0.70;0.60;;;;;;;;;;5055291;28;20455;-76
2022/04/06 01:22:15;;;;;;;0.70;0.60;;;;;;;;;;5073484;28;20442;-77
2022/04/06 01:24:46;;;;;;;0.70;0.60;;;;;;;;;;5070736;28;20471;-77
2022/04/06 01:27:15;;;;;;;0.70;0.60;;;;;;;;;;5063336;28;20451;-76
2022/04/06 01:29:44;;;;;;;0.70;0.60;;;;;;;;;;5053621;28;20461;-77
2022/04/06 01:32:18;;;;;;;0.70;0.60;;;;;;;;;;5054875;28;20435;-77
2022/04/06 01:34:47;;;;;;;0.70;0.60;;;;;;;;;;5054794;28;20478;-75
2022/04/06 01:37:17;;;;;;;0.70;0.60;;;;;;;;;;5063992;28;20492;-76
2022/04/06 01:39:48;;;;;;;0.70;0.70;;;;;;;;;;5073752;28;20552;-74
2022/04/06 01:42:18;;;;;;;0.70;0.60;;;;;;;;;;5073694;28;20831;-77
2022/04/06 01:44:48;;;;;;;0.70;0.60;;;;;;;;;;5065411;28;20448;-76
2022/04/06 01:47:17;;;;;;;0.70;0.60;;;;;;;;;;5051999;28;20446;-76
2022/04/06 01:52:36;;;;;;;0.70;0.60;;;;;;;;;;5054199;28;20441;-77
2022/04/06 01:55:05;;;;;;;0.70;0.60;;;;;;;;;;5053201;28;20452;-76
2022/04/06 01:57:32;;;;;;;0.70;0.60;;;;;;;;;;5053015;28;21020;-77
2022/04/06 01:59:59;;;;;;;0.70;0.60;;;;;;;;;;5063207;28;20479;-78
2022/04/06 02:02:27;;;;;;;0.70;0.60;;;;;;;;;;5055118;28;20451;-77
2022/04/06 02:04:54;;;;;;;0.70;0.57;;;;;;;;;;5046519;28;20442;-78
2022/04/06 02:07:21;;;;;;;0.70;0.63;;;;;;;;;;5072731;28;20452;-77
2022/04/06 02:09:48;;;;;;;0.70;0.60;;;;;;;;;;5058949;28;20538;-75
2022/04/06 02:12:16;;;;;;;0.70;0.60;;;;;;;;;;5066448;28;20921;-76
2022/04/06 02:14:42;;;;;;;0.70;0.70;;;;;;;;;;5063285;28;20538;-78
2022/04/06 02:17:09;;;;;;;0.70;0.60;;;;;;;;;;5055206;28;20465;-77
2022/04/06 02:19:37;;;;;;;0.70;0.60;;;;;;;;;;5070899;28;20548;-76
2022/04/06 02:22:05;;;;;;;0.70;0.70;;;;;;;;;;5072666;28;20472;-78
2022/04/06 02:24:33;;;;;;;0.70;0.60;;;;;;;;;;5051826;28;20497;-76
2022/04/06 02:27:01;;;;;;;0.70;0.60;;;;;;;;;;5053118;28;20527;-76
2022/04/06 02:29:28;;;;;;;0.70;0.60;;;;;;;;;;5058668;28;20463;-77
2022/04/06 02:31:55;;;;;;;0.70;0.60;;;;;;;;;;5072779;28;20446;-78
2022/04/06 02:34:22;;;;;;;0.70;0.60;;;;;;;;;;5051393;28;20473;-76
2022/04/06 02:36:49;;;;;;;0.70;0.60;;;;;;;;;;5070496;28;20472;-77
2022/04/06 02:39:16;;;;;;;0.70;0.60;;;;;;;;;;5069414;28;20503;-76
2022/04/06 02:41:43;;;;;;;0.70;0.60;;;;;;;;;;5072538;28;20425;-78
2022/04/06 02:44:11;;;;;;;0.70;0.67;;;;;;;;;;5070344;28;20445;-78
2022/04/06 02:46:38;;;;;;;1.17;1.07;;;;;;;;;;5070090;28;20438;-77
2022/04/06 02:49:05;;;;;;;0.70;0.70;;;;;;;;;;5071286;28;20850;-77
2022/04/06 02:51:32;;;;;;;0.70;0.60;;;;;;;;;;5071858;28;20798;-77
2022/04/06 02:53:58;;;;;;;0.70;0.60;;;;;;;;;;5070466;28;20434;-76
2022/04/06 02:56:26;;;;;;;0.70;0.60;;;;;;;;;;5051823;28;20568;-77
2022/04/06 02:58:53;;;;;;;0.70;0.70;;;;;;;;;;5056184;28;20482;-78
2022/04/06 03:01:21;;;;;;;1.40;1.27;;;;;;;;;;5072925;28;20419;-77
2022/04/06 03:03:48;;;;;;;0.70;0.60;;;;;;;;;;5055756;28;20441;-76
2022/04/06 03:06:16;;;;;;;0.70;0.60;;;;;;;;;;5053803;28;20473;-76
2022/04/06 03:08:43;;;;;;;0.70;0.60;;;;;;;;;;5056983;28;20442;-78
2022/04/06 03:11:09;;;;;;;0.70;0.60;;;;;;;;;;5055063;28;20446;-77
2022/04/06 03:13:37;;;;;;;0.70;0.60;;;;;;;;;;5052542;28;20436;-78
2022/04/06 03:16:04;;;;;;;0.70;0.67;;;;;;;;;;5051996;28;20493;-78
2022/04/06 03:18:32;;;;;;;0.70;0.60;;;;;;;;;;5035161;28;20463;-79
2022/04/06 03:20:59;;;;;;;0.70;0.60;;;;;;;;;;5035196;28;20500;-77
2022/04/06 03:23:25;;;;;;;0.70;0.60;;;;;;;;;;5051898;28;20443;-76
2022/04/06 03:25:53;;;;;;;0.70;0.60;;;;;;;;;;5052022;28;20489;-78
2022/04/06 03:28:20;;;;;;;0.70;0.60;;;;;;;;;;5053099;28;20446;-77
2022/04/06 03:30:47;;;;;;;0.70;0.60;;;;;;;;;;5052833;28;20525;-78
2022/04/06 03:33:15;;;;;;;0.70;0.60;;;;;;;;;;5050258;28;20475;-77
2022/04/06 03:35:44;;;;;;;0.80;0.70;;;;;;;;;;5071308;28;20434;-79
2022/04/06 03:38:11;;;;;;;0.70;0.70;;;;;;;;;;5074179;28;20465;-78
2022/04/06 03:40:41;;;;;;;0.70;0.70;;;;;;;;;;5077196;28;20440;-78
2022/04/06 03:43:08;;;;;;;0.70;0.60;;;;;;;;;;5059477;28;20464;-77
2022/04/06 03:45:34;;;;;;;0.70;0.60;;;;;;;;;;5058526;28;20446;-75
2022/04/06 03:48:01;;;;;;;0.70;0.60;;;;;;;;;;5055962;28;20493;-76
2022/04/06 03:50:28;;;;;;;0.70;0.60;;;;;;;;;;5038430;28;20813;-77
2022/04/06 03:52:56;;;;;;;0.70;0.60;;;;;;;;;;5055163;28;20450;-77
2022/04/06 03:55:23;;;;;;;0.70;0.60;;;;;;;;;;5049181;28;20520;-79
2022/04/06 03:57:50;;;;;;;0.70;0.60;;;;;;;;;;5060342;28;20459;-77
2022/04/06 04:00:17;;;;;;;0.70;0.60;;;;;;;;;;5055926;28;20958;-77
2022/04/06 04:02:45;;;;;;;0.70;0.53;;;;;;;;;;5050421;28;20541;-78
2022/04/06 04:05:13;;;;;;;0.70;0.60;;;;;;;;;;5064165;28;20523;-79
2022/04/06 04:07:39;;;;;;;0.70;0.60;;;;;;;;;;5064172;28;20548;-80
2022/04/06 04:10:09;;;;;;;0.70;0.60;;;;;;;;;;5059759;28;20427;-77
2022/04/06 04:12:37;;;;;;;0.70;0.63;;;;;;;;;;5074592;28;20503;-77
2022/04/06 04:15:04;;;;;;;0.70;0.60;;;;;;;;;;5056710;28;20808;-79
2022/04/06 04:17:31;;;;;;;0.70;0.60;;;;;;;;;;5075103;28;21023;-78
2022/04/06 04:19:57;;;;;;;0.70;0.60;;;;;;;;;;5074666;28;20441;-79
2022/04/06 04:22:24;;;;;;;1.00;0.80;;;;;;;;;;5076592;28;20480;-79
2022/04/06 04:24:51;;;;;;;0.70;0.60;;;;;;;;;;5072494;28;20532;-77
2022/04/06 04:27:19;;;;;;;0.70;0.60;;;;;;;;;;5074258;28;20408;-77
2022/04/06 04:29:45;;;;;;;0.70;0.60;;;;;;;;;;5066483;28;20888;-78
2022/04/06 04:32:14;;;;;;;0.70;0.60;;;;;;;;;;5053706;28;20948;-77
2022/04/06 04:34:41;;;;;;;0.70;0.60;;;;;;;;;;5055121;28;20854;-76
2022/04/06 04:37:10;;;;;;;0.70;0.60;;;;;;;;;;5053884;28;20512;-78
2022/04/06 04:39:36;;;;;;;1.00;1.00;;;;;;;;;;5043586;28;20487;-78
2022/04/06 04:42:04;;;;;;;0.70;0.60;;;;;;;;;;5073147;28;20508;-76
2022/04/06 04:44:32;;;;;;;0.70;0.60;;;;;;;;;;5070694;28;20445;-77
2022/04/06 04:46:59;;;;;;;0.70;0.60;;;;;;;;;;5061047;28;20538;-79
2022/04/06 04:49:26;;;;;;;0.70;0.70;;;;;;;;;;5074296;28;20453;-77
2022/04/06 04:51:53;;;;;;;0.70;0.70;;;;;;;;;;5073812;28;20517;-79
2022/04/06 04:54:24;;;;;;;1.10;1.00;;;;;;;;;;5072701;28;20437;-78
2022/04/06 04:56:56;;;;;;;0.70;0.60;;;;;;;;;;5073001;28;20627;-79
2022/04/06 04:59:25;;;;;;;0.70;0.60;;;;;;;;;;5073486;28;20446;-78
2022/04/06 05:01:53;;;;;;;0.70;0.60;;;;;;;;;;5073707;28;20446;-79
2022/04/06 05:04:20;;;;;;;0.70;0.70;;;;;;;;;;5071661;28;20436;-75
2022/04/06 05:06:48;;;;;;;0.70;0.70;;;;;;;;;;5071018;28;20504;-77
2022/04/06 05:09:15;;;;;;;0.70;0.60;;;;;;;;;;5074376;28;20829;-77
2022/04/06 05:11:42;;;;;;;0.70;0.60;;;;;;;;;;5069690;28;20473;-79
2022/04/06 05:14:09;;;;;;;0.70;0.60;;;;;;;;;;5072952;28;20479;-79
2022/04/06 05:16:36;;;;;;;0.70;0.63;;;;;;;;;;5054370;28;20445;-78
2022/04/06 05:19:04;;;;;;;0.70;0.70;;;;;;;;;;5052791;28;20565;-80
2022/04/06 05:21:31;;;;;;;0.70;0.60;;;;;;;;;;5052873;28;20464;-77
2022/04/06 05:23:59;;;;;;;0.70;0.60;;;;;;;;;;5060600;28;20461;-80
2022/04/06 05:26:26;;;;;;;0.70;0.60;;;;;;;;;;5071141;28;20501;-78
2022/04/06 05:28:53;;;;;;;0.70;0.60;;;;;;;;;;4904823;28;4380602;-80
2022/04/06 05:31:21;;;;;;;0.70;0.70;;;;;;;;;;5074215;28;20204;-77
2022/04/06 05:33:49;;;;;;;0.70;0.60;;;;;;;;;;5073352;28;20445;-75
2022/04/06 05:36:24;;;;;;;0.70;0.60;;;;;;;;;;5058336;28;20832;-75
2022/04/06 05:38:52;;;;;;;0.70;0.67;;;;;;;;;;5074179;28;20553;-78
2022/04/06 05:41:18;;;;;;;0.70;0.70;;;;;;;;;;5073252;28;20449;-76
2022/04/06 05:43:45;;;;;;;0.70;0.60;;;;;;;;;;5074334;28;20433;-78
2022/04/06 05:46:12;;;;;;;0.70;0.60;;;;;;;;;;5072397;28;20436;-77
2022/04/06 05:48:39;;;;;;;0.70;0.63;;;;;;;;;;5072945;28;20427;-79
2022/04/06 05:51:06;;;;;;;0.70;0.60;;;;;;;;;;5062274;28;20545;-76
2022/04/06 05:53:36;;;;;;;1.03;1.03;;;;;;;;;;5056656;28;20473;-79
2022/04/06 05:56:02;;;;;;;0.70;0.60;;;;;;;;;;5060934;28;20493;-78
2022/04/06 05:58:29;;;;;;;0.70;0.60;;;;;;;;;;5053728;28;20566;-78
2022/04/06 06:00:56;;;;;;;0.70;0.60;;;;;;;;;;5062326;28;20451;-78
2022/04/06 06:03:26;;;;;;;0.70;0.60;;;;;;;;;;5062952;28;21001;-79
2022/04/06 06:05:53;;;;;;;0.70;0.60;;;;;;;;;;5054256;28;20841;-77
2022/04/06 06:08:20;;;;;;;0.70;0.60;;;;;;;;;;5056997;28;20412;-78
2022/04/06 06:10:48;;;;;;;0.70;0.60;;;;;;;;;;5054271;28;20502;-76
2022/04/06 06:13:16;;;;;;;0.70;0.60;;;;;;;;;;5059923;28;20462;-78
2022/04/06 06:15:42;;;;;;;0.70;0.60;;;;;;;;;;5063185;28;20526;-79
2022/04/06 06:18:11;;;;;;;0.70;0.60;;;;;;;;;;5054300;28;20540;-79
2022/04/06 06:20:37;;;;;;;0.70;0.60;;;;;;;;;;5061547;28;20441;-80
2022/04/06 06:23:04;;;;;;;0.70;0.60;;;;;;;;;;5066318;28;20451;-76
2022/04/06 06:25:32;;;;;;;0.70;0.60;;;;;;;;;;5061360;28;20531;-79
2022/04/06 06:28:00;;;;;;;0.70;0.60;;;;;;;;;;5072297;28;20481;-79
2022/04/06 06:30:27;;;;;;;0.70;0.60;;;;;;;;;;5072391;28;20454;-79
2022/04/06 06:32:55;;;;;;;0.70;0.60;;;;;;;;;;5071849;28;20937;-79
2022/04/06 06:35:23;;;;;;;0.70;0.60;;;;;;;;;;5066139;28;20466;-78
2022/04/06 06:37:51;;;;;;;0.70;0.60;;;;;;;;;;5052343;28;20476;-78
2022/04/06 06:40:19;;;;;;;0.70;0.60;;;;;;;;;;5052447;28;20438;-78
2022/04/06 06:42:46;;;;;;;0.70;0.60;;;;;;;;;;5051903;28;20454;-79
2022/04/06 06:45:15;;;;;;;0.70;0.60;;;;;;;;;;5053781;28;20448;-78
2022/04/06 06:47:42;;;;;;;0.70;0.60;;;;;;;;;;5068248;28;20437;-79
2022/04/06 06:50:12;;;;;;;0.70;0.60;;;;;;;;;;5073468;28;20465;-77
2022/04/06 06:52:39;;;;;;;0.70;0.57;;;;;;;;;;5052415;28;20454;-79
2022/04/06 06:55:12;;;;;;;0.70;0.60;;;;;;;;;;5051654;28;20528;-78
2022/04/06 06:57:39;;;;;;;0.70;0.70;;;;;;;;;;5036227;28;20450;-79
2022/04/06 07:00:06;;;;;;;0.70;0.60;;;;;;;;;;5059064;28;20447;-80
2022/04/06 07:02:35;;;;;;;0.70;0.60;;;;;;;;;;5065535;28;20439;-78
2022/04/06 07:05:02;;;;;;;0.70;0.60;;;;;;;;;;5072230;28;20537;-78
2022/04/06 07:07:29;;;;;;;0.70;0.60;;;;;;;;;;5074951;28;20447;-77
2022/04/06 07:09:57;;;;;;;0.70;0.60;;;;;;;;;;5075958;28;20446;-77
2022/04/06 07:12:24;;;;;;;0.80;0.70;;;;;;;;;;5054968;28;20439;-77
2022/04/06 07:14:56;;;;;;;0.70;0.60;;;;;;;;;;5042205;28;20479;-80
2022/04/06 07:17:24;;;;;;;0.70;0.60;;;;;;;;;;5072390;28;20447;-76
2022/04/06 07:19:52;;;;;;;0.70;0.70;;;;;;;;;;5074585;28;20489;-76
2022/04/06 07:22:19;;;;;;;0.70;0.60;;;;;;;;;;5072455;28;21046;-78
2022/04/06 07:24:48;;;;;;;0.70;0.60;;;;;;;;;;5037375;28;20813;-78
2022/04/06 07:27:16;;;;;;;0.70;0.60;;;;;;;;;;5052136;28;20934;-78
2022/04/06 07:29:43;;;;;;;0.70;0.60;;;;;;;;;;5034347;28;20492;-77
2022/04/06 07:32:10;;;;;;;0.70;0.70;;;;;;;;;;5051339;28;20478;-79
2022/04/06 07:34:38;;;;;;;0.70;0.60;;;;;;;;;;5066111;28;20887;-79
2022/04/06 07:37:11;;;;;;;0.70;0.60;;;;;;;;;;5072897;28;20541;-78
2022/04/06 07:39:38;;;;;;;0.70;0.70;;;;;;;;;;5072522;28;20458;-77
2022/04/06 07:42:05;;;;;;;0.70;0.60;;;;;;;;;;5069031;28;20446;-79
2022/04/06 07:44:32;;;;;;;0.70;0.70;;;;;;;;;;5065306;28;20810;-78
2022/04/06 07:47:00;;;;;;;0.70;0.70;;;;;;;;;;5058935;28;20442;-77
2022/04/06 07:49:26;;;;;;;0.70;0.60;;;;;;;;;;5091452;28;20934;-80
2022/04/06 07:51:55;;;;;;;0.70;0.60;;;;;;;;;;5085092;28;20486;-80
2022/04/06 07:54:23;;;;;;;0.70;0.60;;;;;;;;;;5067085;28;20484;-80
2022/04/06 07:56:50;;;;;;;0.70;0.60;;;;;;;;;;5063739;28;20427;-80
2022/04/06 07:59:17;;;;;;;0.70;0.60;;;;;;;;;;5075603;28;20738;-77
2022/04/06 08:01:43;;;;;;;0.70;0.60;;;;;;;;;;5071401;28;20403;-75
2022/04/06 08:04:10;;;;;;;0.70;0.60;;;;;;;;;;5056007;28;20439;-78
2022/04/06 08:06:40;;;;;;;0.70;0.70;;;;;;;;;;5069308;28;20897;-78
2022/04/06 08:09:08;;;;;;;0.70;0.60;;;;;;;;;;5061124;28;20482;-78
2022/04/06 08:11:36;;;;;;;0.70;0.60;;;;;;;;;;5064823;28;20441;-78
2022/04/06 08:14:06;;;;;;;0.70;0.70;;;;;;;;;;5034985;28;20965;-78
2022/04/06 08:16:32;;;;;;;0.70;0.60;;;;;;;;;;5067966;28;20466;-79
2022/04/06 08:19:00;;;;;;;0.70;0.60;;;;;;;;;;5069347;28;20462;-73
2022/04/06 08:21:27;;;;;;;0.70;0.70;;;;;;;;;;5074618;28;20550;-79
2022/04/06 08:23:54;;;;;;;0.70;0.60;;;;;;;;;;5074560;28;20528;-76
2022/04/06 08:26:20;;;;;;;0.70;0.60;;;;;;;;;;5055257;28;20458;-82
2022/04/06 08:28:53;;;;;;;0.90;0.90;;;;;;;;;;5055287;28;20489;-79
2022/04/06 08:31:20;;;;;;;0.70;0.60;;;;;;;;;;5055175;28;20809;-80
2022/04/06 08:33:48;;;;;;;0.70;0.60;;;;;;;;;;5074163;28;20448;-79
2022/04/06 08:36:16;;;;;;;0.70;0.60;;;;;;;;;;5072250;28;20477;-80
2022/04/06 08:38:46;;;;;;;0.70;0.60;;;;;;;;;;5074388;28;20459;-84
2022/04/06 08:41:13;;;;;;;0.70;0.60;;;;;;;;;;5054399;28;20441;-79
2022/04/06 08:43:41;;;;;;;0.70;0.60;;;;;;;;;;5054795;28;20444;-80
2022/04/06 08:46:11;;;;;;;0.70;0.60;;;;;;;;;;5070859;28;20471;-79
2022/04/06 08:48:38;;;;;;;0.70;0.60;;;;;;;;;;5074716;28;20970;-80
2022/04/06 08:51:06;;;;;;;0.70;0.60;;;;;;;;;;5054499;28;20461;-80
2022/04/06 08:53:33;;;;;;;0.70;0.63;;;;;;;;;;5055013;28;20471;-79
2022/04/06 08:55:59;;;;;;;0.80;0.70;;;;;;;;;;5066176;28;20451;-80
2022/04/06 08:58:27;;;;;;;0.70;0.60;;;;;;;;;;5054035;28;20474;-78
2022/04/06 09:00:54;;;;;;;0.70;0.63;;;;;;;;;;5058249;28;20438;-78
2022/04/06 09:03:22;;;;;;;0.70;0.70;;;;;;;;;;5075149;28;20460;-79
2022/04/06 09:05:58;;;;;;;0.80;0.73;;;;;;;;;;5073655;28;20482;-77
2022/04/06 09:08:32;;;;;;;0.70;0.70;;;;;;;;;;5073386;28;20415;-78
2022/04/06 09:11:05;;;;;;;0.70;0.60;;;;;;;;;;5057797;28;20439;-80
2022/04/06 09:13:32;;;;;;;0.70;0.70;;;;;;;;;;5056486;28;20432;-79
2022/04/06 09:15:59;;;;;;;0.70;0.70;;;;;;;;;;5068383;28;20538;-80
2022/04/06 09:18:33;;;;;;;0.70;0.60;;;;;;;;;;5073788;28;20550;-79
2022/04/06 09:21:00;;;;;;;0.70;0.60;;;;;;;;;;5069937;28;20884;-79
2022/04/06 09:23:28;;;;;;;0.70;0.60;;;;;;;;;;5074437;28;20485;-81
2022/04/06 09:26:01;;;;;;;0.70;0.70;;;;;;;;;;5072121;28;20978;-80
2022/04/06 09:28:28;;;;;;;0.70;0.60;;;;;;;;;;5076738;28;20472;-80
2022/04/06 09:30:55;;;;;;;0.70;0.60;;;;;;;;;;5069196;28;20440;-80
2022/04/06 09:33:22;;;;;;;0.70;0.63;;;;;;;;;;5053130;28;20778;-79
2022/04/06 09:35:51;;;;;;;0.70;0.70;;;;;;;;;;5066876;28;20530;-80
2022/04/06 09:38:25;;;;;;;0.70;0.60;;;;;;;;;;5075030;28;20477;-80
2022/04/06 09:41:00;;;;;;;0.70;0.70;;;;;;;;;;5064111;28;20501;-80
2022/04/06 09:43:28;;;;;;;0.73;0.70;;;;;;;;;;5064875;28;20439;-81
2022/04/06 09:48:52;;;;;;;0.70;0.70;;;;;;;;;;5053205;28;20438;-80
2022/04/06 09:51:21;;;;;;;0.70;0.70;;;;;;;;;;5073963;28;20561;-79
2022/04/06 09:53:48;;;;;;;0.77;0.67;;;;;;;;;;5075449;28;20447;-79
2022/04/06 09:56:16;;;;;;;0.70;0.60;;;;;;;;;;5071109;28;20536;-81
2022/04/06 09:58:43;;;;;;;0.80;0.70;;;;;;;;;;5073383;28;20553;-81
2022/04/06 10:01:11;;;;;;;0.70;0.60;;;;;;;;;;5068100;28;20447;-81
2022/04/06 10:03:40;;;;;;;0.80;0.70;;;;;;;;;;5053000;28;20523;-80
2022/04/06 10:06:07;;;;;;;0.80;0.80;;;;;;;;;;5052704;28;20479;-81
2022/04/06 10:08:38;;;;;;;0.80;0.70;;;;;;;;;;5077482;28;20425;-80
2022/04/06 10:11:05;;;;;;;0.70;0.60;;;;;;;;;;5054257;28;20515;-82
2022/04/06 10:13:32;;;;;;;0.70;0.70;;;;;;;;;;5072950;28;20467;-79
2022/04/06 10:16:20;;;;;;;0.70;0.70;;;;;;;;;;5069881;28;20531;-81
2022/04/06 10:18:48;;;;;;;0.70;0.70;;;;;;;;;;5074230;28;20483;-81
2022/04/06 10:21:18;;;;;;;0.70;0.70;;;;;;;;;;5056915;28;20473;-81
2022/04/06 10:23:51;;;;;;;0.70;0.70;;;;;;;;;;5053768;28;20412;-82
2022/04/06 10:26:32;;;;;;;0.70;0.60;;;;;;;;;;5071292;28;20724;-80
2022/04/06 10:29:01;;;;;;;0.70;0.60;;;;;;;;;;5087711;28;20461;-81
2022/04/06 10:31:29;;;;;;;0.70;0.70;;;;;;;;;;5065395;28;20893;-81
2022/04/06 10:34:17;;;;;;;1.67;1.57;;;;;;;;;;5071357;28;20439;-79
2022/04/06 10:36:46;;;;;;;0.70;0.70;;;;;;;;;;5073006;28;20450;-81
2022/04/06 10:39:15;;;;;;;0.70;0.60;;;;;;;;;;5072768;28;20456;-80
2022/04/06 10:41:56;;;;;;;0.70;0.60;;;;;;;;;;5066375;28;20440;-78
2022/04/06 10:44:36;;;;;;;0.70;0.67;;;;;;;;;;5045449;28;20439;-79
2022/04/06 10:47:05;;;;;;;0.80;0.80;;;;;;;;;;5054091;28;20416;-79
2022/04/06 10:49:35;;;;;;;0.80;0.70;;;;;;;;;;5036074;28;20943;-80
2022/04/06 10:52:17;;;;;;;0.70;0.70;;;;;;;;;;5065685;28;20482;-81
2022/04/06 10:54:45;;;;;;;0.70;0.60;;;;;;;;;;5050288;28;20490;-83
2022/04/06 10:57:12;;;;;;;0.70;0.70;;;;;;;;;;5051506;28;20441;-79
2022/04/06 10:59:38;;;;;;;0.70;0.70;;;;;;;;;;5051785;28;20478;-80
2022/04/06 11:02:19;;;;;;;0.80;0.70;;;;;;;;;;5067608;28;20463;-80
2022/04/06 11:04:47;;;;;;;0.70;0.70;;;;;;;;;;5052560;28;20420;-80
2022/04/06 11:07:17;;;;;;;0.80;0.80;;;;;;;;;;5052136;28;20562;-80
2022/04/06 11:12:32;;;;;;;0.80;0.70;;;;;;;;;;5062788;28;20498;-77
2022/04/06 11:15:18;;;;;;;0.77;0.70;;;;;;;;;;5055799;28;20429;-79
2022/04/06 11:17:45;;;;;;;0.70;0.60;;;;;;;;;;5053122;28;20949;-80
2022/04/06 11:20:12;;;;;;;0.70;0.70;;;;;;;;;;5051810;28;20562;-81
2022/04/06 11:22:42;;;;;;;0.77;0.70;;;;;;;;;;5051412;28;21055;-79
2022/04/06 11:25:11;;;;;;;0.70;0.70;;;;;;;;;;5051949;28;20428;-81
2022/04/06 11:27:39;;;;;;;0.70;0.67;;;;;;;;;;5065161;28;20445;-80
2022/04/06 11:30:07;;;;;;;0.70;0.70;;;;;;;;;;5051401;28;20440;-80
2022/04/06 11:32:34;;;;;;;0.80;0.80;;;;;;;;;;5046400;28;20550;-79
2022/04/06 11:35:05;;;;;;;0.70;0.70;;;;;;;;;;5058274;28;20865;-80
2022/04/06 11:37:38;;;;;;;0.70;0.60;;;;;;;;;;5063920;28;20448;-79
2022/04/06 11:40:07;;;;;;;0.70;0.60;;;;;;;;;;5071659;28;20533;-80
2022/04/06 11:42:35;;;;;;;0.80;0.80;;;;;;;;;;5046606;28;20448;-79
2022/04/06 11:45:02;;;;;;;0.80;0.73;;;;;;;;;;5056404;28;20460;-79
2022/04/06 11:47:30;;;;;;;0.70;0.70;;;;;;;;;;5068531;28;20464;-80
2022/04/06 11:49:57;;;;;;;0.80;0.70;;;;;;;;;;5072915;28;20445;-79
2022/04/06 11:52:24;;;;;;;0.70;0.60;;;;;;;;;;5073683;28;20451;-79
2022/04/06 11:54:51;;;;;;;0.80;0.70;;;;;;;;;;5071820;28;20439;-80
2022/04/06 11:57:18;;;;;;;0.80;0.70;;;;;;;;;;5075012;28;20959;-80
2022/04/06 11:59:53;;;;;;;0.70;0.70;;;;;;;;;;5073838;28;20458;-80
2022/04/06 12:02:19;;;;;;;0.70;0.70;;;;;;;;;;5066113;28;20431;-79
2022/04/06 12:04:57;;;;;;;0.70;0.60;;;;;;;;;;5056720;28;20435;-79
2022/04/06 12:07:24;;;;;;;0.70;0.60;;;;;;;;;;5041972;28;20816;-76
2022/04/06 12:09:51;;;;;;;0.90;0.90;;;;;;;;;;5075309;28;20456;-79
2022/04/06 12:12:18;;;;;;;0.70;0.60;;;;;;;;;;5075327;28;20442;-81
2022/04/06 12:14:45;;;;;;;0.80;0.80;;;;;;;;;;5068821;28;20459;-80
2022/04/06 12:17:14;;;;;;;0.70;0.70;;;;;;;;;;5057931;28;20466;-79
2022/04/06 12:19:42;;;;;;;0.70;0.70;;;;;;;;;;5054107;28;20465;-81
2022/04/06 12:22:11;;;;;;;0.70;0.70;;;;;;;;;;5053657;28;20473;-80
2022/04/06 12:24:37;;;;;;;0.73;0.70;;;;;;;;;;5062763;28;20474;-80
2022/04/06 12:27:05;;;;;;;0.80;0.70;;;;;;;;;;5055586;28;20876;-79
2022/04/06 12:29:35;;;;;;;1.03;0.93;;;;;;;;;;5072959;28;20801;-82
2022/04/06 12:32:06;;;;;;;0.70;0.60;;;;;;;;;;5050886;28;20545;-79
2022/04/06 12:34:35;;;;;;;0.80;0.70;;;;;;;;;;5074243;28;20946;-81
2022/04/06 12:37:29;;;;;;;0.77;0.77;;;;;;;;;;5074837;28;20465;-80
2022/04/06 12:39:50;;;;;;;0.70;0.70;;;;;;;;;;5074068;28;20475;-79
2022/04/06 12:42:18;;;;;;;0.70;0.70;;;;;;;;;;5053664;28;20457;-79
2022/04/06 12:44:55;;;;;;;0.70;0.60;;;;;;;;;;5056410;28;20478;-80
2022/04/06 12:47:25;;;;;;;0.70;0.70;;;;;;;;;;5055939;28;20459;-79
2022/04/06 12:50:09;;;;;;;0.70;0.70;;;;;;;;;;5037591;28;20526;-80
2022/04/06 12:52:37;;;;;;;0.70;0.70;;;;;;;;;;5054414;28;20576;-80
2022/04/06 12:55:10;;;;;;;0.70;0.70;;;;;;;;;;5054544;28;20465;-82
2022/04/06 12:57:40;;;;;;;0.70;0.70;;;;;;;;;;5053936;28;20460;-83
2022/04/06 13:00:08;;;;;;;0.70;0.70;;;;;;;;;;5066030;28;20818;-80
2022/04/06 13:02:48;;;;;;;0.70;0.70;;;;;;;;;;5056762;28;20433;-78
2022/04/06 13:05:17;;;;;;;0.80;0.70;;;;;;;;;;5072913;28;20457;-82
2022/04/06 13:07:45;;;;;;;0.70;0.60;;;;;;;;;;5073932;28;20474;-80
2022/04/06 13:10:13;;;;;;;0.80;0.80;;;;;;;;;;5071785;28;20499;-81
2022/04/06 13:12:41;;;;;;;0.70;0.70;;;;;;;;;;5055031;28;20520;-80
2022/04/06 13:15:10;;;;;;;0.70;0.70;;;;;;;;;;5054815;28;20444;-81
2022/04/06 13:17:38;;;;;;;0.70;0.70;;;;;;;;;;5053242;28;20429;-79
2022/04/06 13:20:05;;;;;;;0.70;0.70;;;;;;;;;;5056249;28;20463;-82
2022/04/06 13:22:36;;;;;;;0.70;0.70;;;;;;;;;;5068588;28;20508;-81
2022/04/06 13:25:04;;;;;;;0.70;0.60;;;;;;;;;;5053554;28;20445;-80
2022/04/06 13:27:31;;;;;;;0.70;0.60;;;;;;;;;;5053833;28;20428;-82
2022/04/06 13:30:07;;;;;;;0.70;0.63;;;;;;;;;;5057711;28;20444;-82
2022/04/06 13:32:34;;;;;;;0.70;0.70;;;;;;;;;;5064234;28;20948;-81
2022/04/06 13:35:01;;;;;;;0.73;0.70;;;;;;;;;;5074006;28;20431;-81
2022/04/06 13:37:27;;;;;;;0.70;0.70;;;;;;;;;;5070396;28;20890;-79
2022/04/06 13:39:56;;;;;;;0.70;0.70;;;;;;;;;;5048178;28;20575;-80
2022/04/06 13:42:25;;;;;;;0.70;0.60;;;;;;;;;;5063744;28;20447;-79
2022/04/06 13:44:52;;;;;;;0.70;0.60;;;;;;;;;;5064963;28;20466;-80
2022/04/06 13:47:19;;;;;;;0.70;0.70;;;;;;;;;;5054189;28;21015;-80
2022/04/06 13:49:46;;;;;;;0.70;0.70;;;;;;;;;;5053281;28;20823;-81
2022/04/06 13:52:14;;;;;;;0.70;0.70;;;;;;;;;;5054345;28;20846;-80
2022/04/06 13:54:41;;;;;;;0.70;0.63;;;;;;;;;;5053319;28;20537;-81
2022/04/06 13:57:12;;;;;;;0.70;0.60;;;;;;;;;;5060003;28;20448;-78
2022/04/06 13:59:39;;;;;;;0.70;0.60;;;;;;;;;;5044324;28;20437;-79
2022/04/06 14:02:08;;;;;;;1.10;1.00;;;;;;;;;;5056635;28;20499;-79
2022/04/06 14:04:36;;;;;;;0.70;0.60;;;;;;;;;;5073421;28;20474;-82
2022/04/06 14:07:02;;;;;;;0.70;0.60;;;;;;;;;;5072805;28;20519;-82
2022/04/06 14:09:29;;;;;;;0.80;0.70;;;;;;;;;;5073845;28;20485;-80
2022/04/06 14:11:57;;;;;;;0.80;0.77;;;;;;;;;;5067174;28;20452;-81
2022/04/06 14:14:25;;;;;;;0.70;0.70;;;;;;;;;;5069744;28;20442;-81
2022/04/06 14:16:53;;;;;;;0.90;0.90;;;;;;;;;;5056759;28;20459;-80
2022/04/06 14:19:19;;;;;;;;;;;;;;;;;;5073523;28;20322;-78
2022/04/06 14:21:46;;;;;;;0.77;0.60;;;;;;;;;;5054921;28;20417;-79
2022/04/06 14:24:13;;;;;;;0.70;0.60;;;;;;;;;;5073170;28;20199;-80
2022/04/06 14:26:40;;;;;;;0.70;0.70;;;;;;;;;;5061192;28;20857;-79
2022/04/06 14:29:10;;;;;;;0.70;0.70;;;;;;;;;;5054950;28;21051;-81
2022/04/06 14:31:40;;;;;;;0.70;0.60;;;;;;;;;;5038874;28;20471;-82
2022/04/06 14:34:09;;;;;;;0.70;0.70;;;;;;;;;;5052037;28;20518;-81
2022/04/06 14:36:41;;;;;;;0.70;0.60;;;;;;;;;;5055760;28;20968;-81
2022/04/06 14:39:09;;;;;;;0.70;0.70;;;;;;;;;;5052432;28;20945;-82
2022/04/06 14:41:36;;;;;;;0.80;0.77;;;;;;;;;;5054732;28;20464;-81
2022/04/06 14:44:03;;;;;;;0.70;0.70;;;;;;;;;;5052237;28;20498;-82
2022/04/06 14:46:30;;;;;;;0.70;0.60;;;;;;;;;;5052139;28;20482;-80
2022/04/06 14:48:59;;;;;;;0.70;0.70;;;;;;;;;;5052696;28;20459;-81
2022/04/06 14:51:25;;;;;;;0.70;0.70;;;;;;;;;;5051856;28;20451;-81
2022/04/06 14:53:53;;;;;;;0.70;0.60;;;;;;;;;;5051938;28;20848;-81
2022/04/06 14:56:19;;;;;;;0.70;0.60;;;;;;;;;;5053642;28;20527;-80
2022/04/06 14:58:46;;;;;;;0.70;0.60;;;;;;;;;;5052202;28;20455;-79
2022/04/06 15:01:19;;;;;;;0.70;0.60;;;;;;;;;;5053395;28;20463;-81